createdAt,value
2019-02-20T00:00:06.637Z,100659.17
2019-02-20T00:02:37.477Z,100664.36
2019-02-20T00:05:07.972Z,100669.31
2019-02-20T00:07:38.315Z,100673.55
2019-02-20T00:10:08.974Z,100667.11
2019-02-20T00:12:41.253Z,100676.73
2019-02-20T00:15:11.689Z,100679.28
2019-02-20T00:17:42.491Z,100678.47
2019-02-20T00:20:12.888Z,100678.28
2019-02-20T00:22:44.373Z,100684.40
2019-02-20T00:25:15.067Z,100685.34
2019-02-20T00:27:45.526Z,100688.11
2019-02-20T00:30:19.433Z,100686.92
2019-02-20T00:32:49.765Z,100685.37
2019-02-20T00:35:23.637Z,100686.15
2019-02-20T00:37:56.462Z,100689.14
2019-02-20T00:40:26.876Z,100685.51
2019-02-20T00:42:59.245Z,100687.25
2019-02-20T00:46:02.930Z,100684.80
2019-02-20T00:48:56.212Z,100694.77
2019-02-20T00:51:37.172Z,100699.71
2019-02-20T00:54:09.331Z,100700.90
2019-02-20T00:56:42.402Z,100703.09
2019-02-20T00:59:16.865Z,100703.11
2019-02-20T01:01:47.427Z,100706.62
2019-02-20T01:04:17.880Z,100703.30
2019-02-20T01:06:48.260Z,100697.94
2019-02-20T01:09:18.726Z,100699.83
2019-02-20T01:11:49.288Z,100702.55
2019-02-20T01:14:20.520Z,100699.41
2019-02-20T01:16:51.557Z,100694.46
2019-02-20T01:19:22.049Z,100694.67
2019-02-20T01:21:52.739Z,100694.44
2019-02-20T01:24:23.497Z,100691.06
2019-02-20T01:26:53.921Z,100688.78
2019-02-20T01:29:24.231Z,100693.70
2019-02-20T01:31:54.570Z,100688.63
2019-02-20T01:34:25.523Z,100689.84
2019-02-20T01:36:56.196Z,100689.22
2019-02-20T01:39:26.939Z,100682.63
2019-02-20T01:41:58.901Z,100694.42
2019-02-20T01:44:29.350Z,100694.61
2019-02-20T01:47:00.924Z,100688.66
2019-02-20T01:49:31.326Z,100692.34
2019-02-20T01:52:02.984Z,100683.00
2019-02-20T01:54:33.567Z,100691.23
2019-02-20T01:57:04.064Z,100684.94
2019-02-20T01:59:37.250Z,100689.16
2019-02-20T02:02:07.708Z,100696.78
2019-02-20T02:04:38.412Z,100696.05
2019-02-20T02:07:11.794Z,100698.41
2019-02-20T02:09:42.301Z,100692.67
2019-02-20T02:12:12.721Z,100692.97
2019-02-20T02:14:43.494Z,100691.63
2019-02-20T02:17:13.953Z,100692.16
2019-02-20T02:19:44.637Z,100688.61
2019-02-20T02:22:18.364Z,100691.42
2019-02-20T02:25:05.270Z,100685.84
2019-02-20T02:27:35.434Z,100690.11
2019-02-20T02:30:06.705Z,100691.16
2019-02-20T02:32:37.616Z,100690.62
2019-02-20T02:35:08.271Z,100685.84
2019-02-20T02:37:38.708Z,100691.23
2019-02-20T02:40:09.913Z,100695.34
2019-02-20T02:42:41.607Z,100696.44
2019-02-20T02:45:12.237Z,100696.56
2019-02-20T02:47:42.731Z,100698.56
2019-02-20T02:50:13.159Z,100706.89
2019-02-20T02:52:43.605Z,100713.41
2019-02-20T02:55:14.449Z,100703.92
2019-02-20T02:57:48.232Z,100705.26
2019-02-20T03:00:18.716Z,100704.09
2019-02-20T03:02:50.115Z,100699.92
2019-02-20T03:05:20.690Z,100697.86
2019-02-20T03:07:51.597Z,100693.31
2019-02-20T03:10:21.961Z,100689.39
2019-02-20T03:12:53.478Z,100695.27
2019-02-20T03:15:28.386Z,100698.52
2019-02-20T03:18:00.714Z,100696.61
2019-02-20T03:20:31.598Z,100698.34
2019-02-20T03:23:05.201Z,100696.84
2019-02-20T03:25:42.641Z,100695.66
2019-02-20T03:28:13.125Z,100696.05
2019-02-20T03:30:43.948Z,100697.70
2019-02-20T03:33:14.493Z,100708.20
2019-02-20T03:35:44.863Z,100710.66
2019-02-20T03:38:15.246Z,100719.71
2019-02-20T03:40:45.994Z,100716.34
2019-02-20T03:43:16.845Z,100728.91
2019-02-20T03:45:47.386Z,100728.22
2019-02-20T03:48:18.587Z,100733.80
2019-02-20T03:50:49.017Z,100725.17
2019-02-20T03:53:23.767Z,100729.89
2019-02-20T03:56:34.619Z,100722.94
2019-02-20T03:58:44.359Z,100716.23
2019-02-20T04:01:15.078Z,100722.19
2019-02-20T04:03:45.526Z,100724.86
2019-02-20T04:06:15.935Z,100725.26
2019-02-20T04:08:46.478Z,100725.71
2019-02-20T04:11:19.599Z,100724.08
2019-02-20T04:13:50.048Z,100730.89
2019-02-20T04:16:20.802Z,100734.88
2019-02-20T04:18:51.595Z,100733.45
2019-02-20T04:21:22.088Z,100731.70
2019-02-20T04:24:01.986Z,100743.19
2019-02-20T04:26:24.740Z,100739.63
2019-02-20T04:28:55.610Z,100735.75
2019-02-20T04:31:26.111Z,100735.34
2019-02-20T04:33:56.641Z,100732.84
2019-02-20T04:36:27.386Z,100731.90
2019-02-20T04:38:57.715Z,100738.19
2019-02-20T04:41:28.193Z,100745.55
2019-02-20T04:43:58.568Z,100746.38
2019-02-20T04:46:32.042Z,100741.00
2019-02-20T04:49:02.495Z,100745.76
2019-02-20T04:51:35.439Z,100736.83
2019-02-20T04:54:13.747Z,100744.36
2019-02-20T04:56:43.699Z,100734.81
2019-02-20T04:59:14.120Z,100736.08
2019-02-20T05:01:44.609Z,100736.72
2019-02-20T05:04:18.424Z,100737.88
2019-02-20T05:06:50.517Z,100733.08
2019-02-20T05:09:20.949Z,100742.19
2019-02-20T05:11:52.802Z,100746.10
2019-02-20T05:14:23.228Z,100744.05
2019-02-20T05:16:53.736Z,100741.52
2019-02-20T05:19:24.161Z,100746.31
2019-02-20T05:21:56.063Z,100741.69
2019-02-20T05:24:26.677Z,100745.94
2019-02-20T05:26:57.142Z,100749.17
2019-02-20T05:29:32.659Z,100752.39
2019-02-20T05:32:03.135Z,100750.27
2019-02-20T05:34:33.540Z,100748.56
2019-02-20T05:37:04.164Z,100754.25
2019-02-20T05:39:34.574Z,100744.90
2019-02-20T05:42:05.002Z,100741.03
2019-02-20T05:44:35.466Z,100737.51
2019-02-20T05:47:06.444Z,100740.98
2019-02-20T05:49:36.870Z,100752.60
2019-02-20T05:52:07.784Z,100751.44
2019-02-20T05:54:40.938Z,100753.20
2019-02-20T06:00:51.425Z,100769.15
2019-02-20T06:03:23.023Z,100771.73
2019-02-20T06:05:53.989Z,100771.27
2019-02-20T06:08:25.017Z,100777.50
2019-02-20T06:10:58.349Z,100784.49
2019-02-20T06:13:29.553Z,100781.19
2019-02-20T06:16:00.118Z,100779.55
2019-02-20T06:18:38.997Z,100783.19
2019-02-20T06:21:29.668Z,100786.56
2019-02-20T06:24:00.397Z,100800.02
2019-02-20T06:26:30.934Z,100797.64
2019-02-20T06:29:01.403Z,100795.91
2019-02-20T06:31:32.140Z,100800.56
2019-02-20T06:34:03.976Z,100800.17
2019-02-20T06:40:38.062Z,100814.36
2019-02-20T06:43:10.019Z,100819.13
2019-02-20T06:45:40.458Z,100814.29
2019-02-20T06:48:10.891Z,100824.25
2019-02-20T06:50:41.347Z,100827.73
2019-02-20T06:53:11.750Z,100822.84
2019-02-20T06:55:42.313Z,100829.77
2019-02-20T06:58:12.782Z,100827.88
2019-02-20T07:00:43.182Z,100829.24
2019-02-20T07:03:13.718Z,100835.62
2019-02-20T07:05:50.190Z,100828.33
2019-02-20T07:09:01.667Z,100830.34
2019-02-20T07:11:45.983Z,100829.23
2019-02-20T07:15:13.337Z,100826.13
2019-02-20T07:18:03.763Z,100836.65
2019-02-20T07:21:22.965Z,100837.91
2019-02-20T07:24:44.880Z,100848.11
2019-02-20T07:28:34.063Z,100846.84
2019-02-20T07:31:05.444Z,100855.92
2019-02-20T07:33:40.741Z,100859.11
2019-02-20T07:36:11.205Z,100857.20
2019-02-20T07:38:46.061Z,100862.30
2019-02-20T07:41:16.944Z,100871.70
2019-02-20T07:43:55.672Z,100871.02
2019-02-20T07:46:26.342Z,100882.40
2019-02-20T07:48:58.886Z,100888.04
2019-02-20T07:51:33.919Z,100894.69
2019-02-20T07:54:04.363Z,100884.05
2019-02-20T07:56:34.857Z,100890.34
2019-02-20T07:59:05.495Z,100903.80
2019-02-20T08:01:37.602Z,100903.66
2019-02-20T08:04:08.146Z,100903.77
2019-02-20T08:06:38.915Z,100906.07
2019-02-20T08:09:09.857Z,100908.82
2019-02-20T08:11:40.404Z,100911.89
2019-02-20T08:14:11.327Z,100904.96
2019-02-20T08:16:51.799Z,100907.41
2019-02-20T08:19:16.049Z,100909.59
2019-02-20T08:21:46.859Z,100905.30
2019-02-20T08:24:17.576Z,100906.42
2019-02-20T08:26:48.114Z,100910.53
2019-02-20T08:29:18.900Z,100917.14
2019-02-20T08:31:50.425Z,100908.08
2019-02-20T08:34:21.906Z,100917.04
2019-02-20T08:36:52.847Z,100915.37
2019-02-20T08:39:24.400Z,100925.07
2019-02-20T08:41:55.951Z,100919.46
2019-02-20T08:44:26.383Z,100921.92
2019-02-20T08:46:56.807Z,100924.34
2019-02-20T08:49:27.576Z,100933.86
2019-02-20T08:51:57.961Z,100932.85
2019-02-20T08:54:28.396Z,100926.05
2019-02-20T08:56:59.939Z,100933.03
2019-02-20T08:59:30.598Z,100932.55
2019-02-20T09:02:01.241Z,100934.63
2019-02-20T09:04:32.400Z,100936.17
2019-02-20T09:07:03.305Z,100944.52
2019-02-20T09:09:36.696Z,100944.20
2019-02-20T09:12:08.218Z,100940.88
2019-02-20T09:14:42.382Z,100938.64
2019-02-20T09:17:13.296Z,100942.50
2019-02-20T09:19:44.126Z,100945.74
2019-02-20T09:22:14.846Z,100943.59
2019-02-20T09:24:45.787Z,100938.61
2019-02-20T09:27:16.270Z,100941.82
2019-02-20T09:29:49.403Z,100944.91
2019-02-20T09:32:20.209Z,100943.41
2019-02-20T09:34:51.309Z,100940.01
2019-02-20T09:37:25.229Z,100947.62
2019-02-20T09:39:56.985Z,100945.48
2019-02-20T09:42:33.178Z,100948.13
2019-02-20T09:45:03.665Z,100952.87
2019-02-20T09:47:34.154Z,100957.48
2019-02-20T09:50:06.050Z,100963.55
2019-02-20T09:52:38.629Z,100972.64
2019-02-20T09:55:11.944Z,100964.00
2019-02-20T09:57:42.436Z,100966.64
2019-02-20T10:00:15.990Z,100969.52
2019-02-20T10:02:53.328Z,100960.42
2019-02-20T10:05:30.951Z,100958.55
2019-02-20T10:08:04.504Z,100962.53
2019-02-20T10:10:35.503Z,100959.05
2019-02-20T10:13:17.658Z,100968.61
2019-02-20T10:15:49.211Z,100968.45
2019-02-20T10:18:19.900Z,100973.64
2019-02-20T10:20:50.720Z,100974.08
2019-02-20T10:23:21.443Z,100976.86
2019-02-20T10:26:00.956Z,100975.75
2019-02-20T10:28:31.016Z,100973.70
2019-02-20T10:31:01.907Z,100970.13
2019-02-20T10:33:32.777Z,100978.70
2019-02-20T10:36:03.407Z,100975.72
2019-02-20T10:38:36.565Z,100968.29
2019-02-20T10:41:07.355Z,100971.36
2019-02-20T10:43:45.149Z,100977.28
2019-02-20T10:46:16.045Z,100973.83
2019-02-20T10:48:46.772Z,100974.53
2019-02-20T10:51:17.509Z,100967.98
2019-02-20T10:53:54.845Z,100976.55
2019-02-20T10:56:29.190Z,100979.14
2019-02-20T10:58:59.862Z,100978.92
2019-02-20T11:01:44.524Z,100980.63
2019-02-20T11:04:15.104Z,100973.30
2019-02-20T11:06:45.540Z,100975.98
2019-02-20T11:09:16.084Z,100971.67
2019-02-20T11:11:48.354Z,100966.38
2019-02-20T11:14:22.977Z,100965.30
2019-02-20T11:16:53.532Z,100967.95
2019-02-20T11:19:24.101Z,100972.31
2019-02-20T11:21:55.979Z,100962.28
2019-02-20T11:24:27.734Z,100969.86
2019-02-20T11:26:58.957Z,100963.64
2019-02-20T11:29:30.431Z,100963.91
2019-02-20T11:32:01.169Z,100955.99
2019-02-20T11:34:33.052Z,100952.02
2019-02-20T11:37:03.482Z,100948.55
2019-02-20T11:39:37.858Z,100950.74
2019-02-20T11:42:10.010Z,100952.13
2019-02-20T11:44:40.690Z,100957.06
2019-02-20T11:47:14.312Z,100947.91
2019-02-20T11:49:45.213Z,100952.52
2019-02-20T11:52:15.615Z,100945.91
2019-02-20T11:54:46.070Z,100951.31
2019-02-20T11:57:18.956Z,100944.91
2019-02-20T11:59:48.988Z,100938.66
2019-02-20T12:02:19.524Z,100939.42
2019-02-20T12:04:54.861Z,100939.23
2019-02-20T12:07:28.366Z,100951.23
2019-02-20T12:09:58.921Z,100945.66
2019-02-20T12:12:29.844Z,100946.38
2019-02-20T12:15:04.985Z,100950.38
2019-02-20T12:17:44.101Z,100953.14
2019-02-20T12:20:17.301Z,100951.08
2019-02-20T12:22:47.750Z,100949.80
2019-02-20T12:25:18.165Z,100944.15
2019-02-20T12:27:48.662Z,100943.24
2019-02-20T12:30:20.762Z,100945.86
2019-02-20T12:32:51.895Z,100943.27
2019-02-20T12:35:22.359Z,100946.02
2019-02-20T12:37:52.827Z,100950.46
2019-02-20T12:40:23.487Z,100950.51
2019-02-20T12:42:54.010Z,100951.34
2019-02-20T12:45:24.434Z,100951.03
2019-02-20T12:47:57.036Z,100947.52
2019-02-20T12:50:27.659Z,100947.34
2019-02-20T12:52:58.084Z,100953.44
2019-02-20T12:55:29.954Z,100953.12
2019-02-20T12:58:00.364Z,100951.88
2019-02-20T13:00:31.062Z,100947.31
2019-02-20T13:03:01.944Z,100942.13
2019-02-20T13:05:32.770Z,100946.94
2019-02-20T13:08:03.577Z,100946.41
2019-02-20T13:10:36.263Z,100945.45
2019-02-20T13:13:07.725Z,100942.70
2019-02-20T13:15:42.062Z,100944.70
2019-02-20T13:18:18.879Z,100942.50
2019-02-20T13:20:49.350Z,100940.06
2019-02-20T13:23:20.218Z,100939.47
2019-02-20T13:25:55.348Z,100938.22
2019-02-20T13:28:27.881Z,100941.80
2019-02-20T13:31:05.162Z,100938.30
2019-02-20T13:33:36.883Z,100941.31
2019-02-20T13:36:09.188Z,100933.64
2019-02-20T13:38:43.411Z,100938.41
2019-02-20T13:41:20.537Z,100932.27
2019-02-20T13:43:54.958Z,100930.62
2019-02-20T13:46:27.615Z,100928.67
2019-02-20T13:49:11.325Z,100923.83
2019-02-20T13:51:42.148Z,100927.30
2019-02-20T13:54:12.803Z,100925.55
2019-02-20T13:56:43.511Z,100923.12
2019-02-20T13:59:14.875Z,100923.86
2019-02-20T14:01:45.697Z,100928.98
2019-02-20T14:04:17.760Z,100933.16
2019-02-20T14:06:49.387Z,100933.94
2019-02-20T14:09:26.336Z,100936.80
2019-02-20T14:11:56.898Z,100937.11
2019-02-20T14:14:27.396Z,100935.33
2019-02-20T14:16:58.396Z,100930.86
2019-02-20T14:19:28.866Z,100939.66
2019-02-20T14:21:59.401Z,100930.38
2019-02-20T14:24:31.504Z,100934.30
2019-02-20T14:27:10.212Z,100926.91
2019-02-20T14:29:39.724Z,100926.67
2019-02-20T14:32:10.495Z,100927.06
2019-02-20T14:34:40.941Z,100928.17
2019-02-20T14:37:18.187Z,100932.53
2019-02-20T14:39:50.788Z,100930.10
2019-02-20T14:42:21.782Z,100928.45
2019-02-20T14:44:52.328Z,100930.46
2019-02-20T14:47:22.807Z,100938.13
2019-02-20T14:49:54.486Z,100936.13
2019-02-20T14:52:25.132Z,100934.70
2019-02-20T14:54:56.315Z,100940.12
2019-02-20T14:57:27.107Z,100939.54
2019-02-20T14:59:57.889Z,100939.81
2019-02-20T15:02:29.985Z,100943.41
2019-02-20T15:05:01.363Z,100939.55
2019-02-20T15:07:31.833Z,100940.62
2019-02-20T15:10:10.769Z,100942.88
2019-02-20T15:12:41.442Z,100948.11
2019-02-20T15:15:19.057Z,100945.33
2019-02-20T15:17:49.938Z,100945.21
2019-02-20T15:20:27.978Z,100952.41
2019-02-20T15:23:05.262Z,100955.92
2019-02-20T15:25:35.807Z,100960.58
2019-02-20T15:28:06.327Z,100955.73
2019-02-20T15:30:40.659Z,100956.72
2019-02-20T15:33:14.183Z,100950.86
2019-02-20T15:35:45.749Z,100949.56
2019-02-20T15:38:16.194Z,100953.84
2019-02-20T15:40:46.857Z,100955.77
2019-02-20T15:43:17.363Z,100959.88
2019-02-20T15:45:49.878Z,100954.12
2019-02-20T15:48:23.556Z,100956.30
2019-02-20T15:50:55.774Z,100958.80
2019-02-20T15:53:27.355Z,100961.36
2019-02-20T15:56:00.705Z,100963.22
2019-02-20T15:58:31.233Z,100964.84
2019-02-20T16:01:02.596Z,100967.62
2019-02-20T16:03:33.046Z,100965.75
2019-02-20T16:06:04.346Z,100972.27
2019-02-20T16:08:34.892Z,100970.10
2019-02-20T16:11:05.530Z,100968.20
2019-02-20T16:13:36.012Z,100973.23
2019-02-20T16:16:07.555Z,100977.45
2019-02-20T16:18:38.193Z,100980.08
2019-02-20T16:21:08.614Z,100985.64
2019-02-20T16:23:41.848Z,100987.77
2019-02-20T16:26:12.678Z,100992.65
2019-02-20T16:28:52.331Z,100992.16
2019-02-20T16:31:25.977Z,101000.26
2019-02-20T16:33:59.620Z,101005.96
2019-02-20T16:36:30.092Z,100993.44
2019-02-20T16:39:01.188Z,100997.95
2019-02-20T16:41:31.964Z,101005.86
2019-02-20T16:44:04.665Z,101007.63
2019-02-20T16:46:35.750Z,101013.16
2019-02-20T16:49:07.064Z,101012.46
2019-02-20T16:51:38.905Z,101013.02
2019-02-20T16:54:09.486Z,101016.11
2019-02-20T16:56:39.884Z,101023.10
2019-02-20T16:59:10.283Z,101022.74
2019-02-20T17:01:40.699Z,101026.94
2019-02-20T17:04:11.103Z,101028.45
2019-02-20T17:06:52.597Z,101033.41
2019-02-20T17:09:23.957Z,101035.13
2019-02-20T17:11:54.468Z,101039.06
2019-02-20T17:14:25.391Z,101035.59
2019-02-20T17:16:55.827Z,101044.50
2019-02-20T17:19:26.507Z,101047.37
2019-02-20T17:21:58.344Z,101048.05
2019-02-20T17:24:31.054Z,101048.64
2019-02-20T17:27:02.792Z,101049.50
2019-02-20T17:29:34.069Z,101049.14
2019-02-20T17:32:05.078Z,101045.97
2019-02-20T17:34:35.540Z,101041.73
2019-02-20T17:37:08.258Z,101046.34
2019-02-20T17:39:39.025Z,101042.23
2019-02-20T17:42:09.593Z,101046.95
2019-02-20T17:44:42.129Z,101045.85
2019-02-20T17:47:16.015Z,101057.32
2019-02-20T17:49:46.833Z,101052.95
2019-02-20T17:52:28.439Z,101054.13
2019-02-20T17:55:02.403Z,101059.58
2019-02-20T17:57:35.056Z,101062.76
2019-02-20T18:00:10.142Z,101061.36
2019-02-20T18:02:41.780Z,101061.38
2019-02-20T18:05:13.884Z,101065.23
2019-02-20T18:07:51.506Z,101072.33
2019-02-20T18:10:35.320Z,101068.85
2019-02-20T18:13:26.758Z,101070.84
2019-02-20T18:16:09.269Z,101078.01
2019-02-20T18:18:45.204Z,101073.72
2019-02-20T18:21:17.419Z,101075.13
2019-02-20T18:23:53.028Z,101078.30
2019-02-20T18:26:23.761Z,101077.59
2019-02-20T18:28:54.172Z,101074.20
2019-02-20T18:31:33.079Z,101082.19
2019-02-20T18:34:03.690Z,101082.84
2019-02-20T18:36:34.186Z,101087.02
2019-02-20T18:39:05.890Z,101087.56
2019-02-20T18:41:37.295Z,101087.16
2019-02-20T18:44:08.148Z,101089.39
2019-02-20T18:46:40.758Z,101089.86
2019-02-20T18:49:11.290Z,101095.11
2019-02-20T18:51:42.027Z,101095.21
2019-02-20T18:54:12.595Z,101091.49
2019-02-20T18:56:44.950Z,101095.79
2019-02-20T18:59:16.010Z,101106.85
2019-02-20T19:02:02.321Z,101102.89
2019-02-20T19:05:06.257Z,101101.77
2019-02-20T19:07:41.791Z,101102.59
2019-02-20T19:10:24.513Z,101097.38
2019-02-20T19:13:44.036Z,101098.58
2019-02-20T19:17:07.627Z,101102.33
2019-02-20T19:20:20.757Z,101100.92
2019-02-20T19:24:20.442Z,101105.34
2019-02-20T19:27:34.657Z,101112.45
2019-02-20T19:31:14.046Z,101108.59
2019-02-20T19:34:27.709Z,101113.12
2019-02-20T19:38:16.135Z,101109.41
2019-02-20T19:41:57.209Z,101117.09
2019-02-20T19:44:56.620Z,101121.98
2019-02-20T19:48:25.234Z,101118.61
2019-02-20T19:51:46.492Z,101122.24
2019-02-20T19:54:42.196Z,101121.83
2019-02-20T19:57:56.798Z,101115.42
2019-02-20T20:01:25.696Z,101114.96
2019-02-20T20:04:48.059Z,101115.76
2019-02-20T20:08:19.786Z,101116.16
2019-02-20T20:11:52.333Z,101116.12
2019-02-20T20:15:21.257Z,101119.47
2019-02-20T20:18:54.309Z,101120.57
2019-02-20T20:22:21.119Z,101115.54
2019-02-20T20:25:41.375Z,101126.34
2019-02-20T20:28:36.095Z,101121.78
2019-02-20T20:32:01.553Z,101123.11
2019-02-20T20:35:31.906Z,101126.45
2019-02-20T20:39:01.091Z,101118.16
2019-02-20T20:42:33.471Z,101120.06
2019-02-20T20:46:07.069Z,101124.18
2019-02-20T20:49:37.367Z,101126.86
2019-02-20T20:52:45.773Z,101118.87
2019-02-20T20:56:20.568Z,101113.12
2019-02-20T20:59:35.546Z,101115.76
2019-02-20T21:02:56.033Z,101115.02
2019-02-20T21:06:24.092Z,101107.27
2019-02-20T21:09:29.543Z,101105.27
2019-02-20T21:12:53.685Z,101100.44
2019-02-20T21:15:50.619Z,101113.38
2019-02-20T21:19:21.347Z,101110.31
2019-02-20T21:22:24.344Z,101110.38
2019-02-20T21:25:38.720Z,101115.27
2019-02-20T21:28:35.199Z,101118.11
2019-02-20T21:31:53.719Z,101106.07
2019-02-20T21:35:26.853Z,101109.05
2019-02-20T21:38:55.343Z,101109.67
2019-02-20T21:41:45.265Z,101109.36
2019-02-20T21:45:03.440Z,101109.15
2019-02-20T21:48:47.075Z,101108.18
2019-02-20T21:52:00.680Z,101115.86
2019-02-20T21:55:45.192Z,101116.55
2019-02-20T21:59:18.901Z,101116.02
2019-02-20T22:03:07.362Z,101124.52
2019-02-20T22:06:53.014Z,101127.98
2019-02-20T22:10:23.737Z,101132.52
2019-02-20T22:13:45.552Z,101128.19
2019-02-20T22:17:34.227Z,101122.73
2019-02-20T22:20:41.111Z,101133.46
2019-02-20T22:23:52.053Z,101126.20
2019-02-20T22:27:15.972Z,101119.20
2019-02-20T22:30:45.452Z,101125.49
2019-02-20T22:33:49.634Z,101123.49
2019-02-20T22:37:33.162Z,101124.66
2019-02-20T22:40:57.617Z,101129.31
2019-02-20T22:44:11.232Z,101125.05
2019-02-20T22:47:19.186Z,101123.84
2019-02-20T22:51:00.454Z,101122.53
2019-02-20T22:54:35.914Z,101133.99
2019-02-20T22:58:02.076Z,101133.98
